Main page
METAR-TAF:

METAR-TAF

Airports :

Huesca–Pirineos Airport

Huesca, Spain

latitude: 42-04-32N, longitude: 0-18-58W, elevation: 539 m

Current weather observation

The report was made 22 minutes ago, at 06:00 UTC
Wind 6 kt from the West/Southwest
Temperature 7°C
Humidity 93%
Pressure 1026 hPa
Visibility 10 km or more

METAR: LEHC 230600Z AUTO 25006KT 9999 NCD 07/06 Q1026

Time: 08:22 (06:22 UTC)

Forecast

The report was made 4 hours and 22 minutes ago, at 02:00 UTC
Forecast valid from 23 at 03 UTC to 24 at 03 UTC
Wind 4 kt from variable directions
Visibility 10 km or more
Few clouds at a height of 3000 ft
Probability 30% :
Temporary
from 23 at 03 UTC to 23 at 07 UTC
Visibility: 2000 m
mist

TAF: LEHC 230200Z 2303/2403 VRB04KT 9999 FEW030 TX21/2313Z TN07/2305Z PROB30 TEMPO 2303/2307 2000 BR

Weather observations and forecasts of more than 4000 airports (METAR and TAF reports).

The available stations are represented by yellow and red dots on the map.

Hover mouse over dot to see the name of the station.

Then click to see weather observations and forecasts.

To change the map : click on the green buttons with a black cross to zoom in, on the green button with a dash to zoom out, or on the green arrows for adjacent maps.


METAR-TAF: